Time;durP1;ratioP1;P1;durP2;ratioP2;P2;SDS_P1;SDS_P2;PMS_P1;PMS_P2;Temp;Humidity;BMP_temperature;BMP_pressure;BME280_temperature;BME280_humidity;BME280_pressure;Samples;Min_cycle;Max_cycle;Signal;HPM_P1;HPM_P2
2023/01/31 00:00:18;;;;;;;;;;;;;;;1.29;100.00;97748.16;4921718;29;19918;-74
2023/01/31 00:02:44;;;;;;;;;;;;;;;1.30;100.00;97749.78;4937026;29;20001;-72
2023/01/31 00:05:10;;;;;;;;;;;;;;;1.31;100.00;97751.41;4919887;29;19951;-73
2023/01/31 00:07:36;;;;;;;;;;;;;;;1.30;100.00;97755.03;4936366;29;20374;-73
2023/01/31 00:10:01;;;;;;;;;;;;;;;1.32;100.00;97762.72;4937425;29;19954;-75
2023/01/31 00:12:26;;;;;;;;;;;;;;;1.36;100.00;97751.69;4949667;29;19935;-74
2023/01/31 00:14:51;;;;;;;;;;;;;;;1.42;100.00;97744.91;4950106;29;19918;-75
2023/01/31 00:17:17;;;;;;;;;;;;;;;1.42;100.00;97752.78;4932459;29;19911;-74
2023/01/31 00:19:42;;;;;;;;;;;;;;;1.41;100.00;97757.22;4952515;29;19911;-73
2023/01/31 00:22:07;;;;;;;;;;;;;;;1.43;100.00;97755.22;4946882;29;19922;-73
2023/01/31 00:24:33;;;;;;;;;;;;;;;1.45;100.00;97748.03;4940837;29;19910;-74
2023/01/31 00:27:01;;;;;;;;;;;;;;;1.41;100.00;97756.41;4920110;29;20418;-73
2023/01/31 00:29:26;;;;;;;;;;;;;;;1.41;100.00;97762.47;4937570;29;20005;-75
2023/01/31 00:31:52;;;;;;;;;;;;;;;1.42;100.00;97758.84;4938731;29;19953;-74
2023/01/31 00:34:17;;;;;;;;;;;;;;;1.40;100.00;97758.22;4939229;29;19921;-74
2023/01/31 00:36:43;;;;;;;;;;;;;;;1.41;100.00;97759.84;4920887;29;20251;-74
2023/01/31 00:39:08;;;;;;;;;;;;;;;1.42;100.00;97758.84;4936116;29;20372;-74
2023/01/31 00:41:35;;;;;;;;;;;;;;;1.45;100.00;97761.16;4937788;29;19921;-74
2023/01/31 00:44:01;;;;;;;;;;;;;;;1.43;100.00;97757.84;4936393;29;19911;-74
2023/01/31 00:46:27;;;;;;;;;;;;;;;1.40;100.00;97760.84;4935538;29;20343;-74
2023/01/31 00:48:52;;;;;;;;;;;;;;;1.41;100.00;97757.22;4918231;29;19922;-73
2023/01/31 00:51:18;;;;;;;;;;;;;;;1.41;100.00;97766.91;4938433;29;19918;-73
2023/01/31 00:53:43;;;;;;;;;;;;;;;1.39;100.00;97763.63;4927410;29;20283;-74
2023/01/31 00:56:13;;;;;;;;;;;;;;;1.43;100.00;97775.41;4941844;29;19965;-73
2023/01/31 00:58:39;;;;;;;;;;;;;;;1.43;100.00;97780.63;4944506;29;19961;-74
2023/01/31 01:01:06;;;;;;;;;;;;;;;1.39;100.00;97789.84;4943596;29;19914;-73
2023/01/31 01:03:32;;;;;;;;;;;;;;;1.32;100.00;97794.19;4940058;29;19914;-72
2023/01/31 01:05:57;;;;;;;;;;;;;;;1.15;100.00;97798.72;4936091;29;20327;-79
2023/01/31 01:08:22;;;;;;;;;;;;;;;1.07;100.00;97806.66;4918207;29;20364;-72
2023/01/31 01:10:48;;;;;;;;;;;;;;;1.02;100.00;97799.31;4934980;29;19914;-74
2023/01/31 01:13:13;;;;;;;;;;;;;;;0.93;100.00;97793.31;4934908;29;19950;-75
2023/01/31 01:15:38;;;;;;;;;;;;;;;0.87;100.00;97806.31;4935287;29;19957;-75
2023/01/31 01:18:04;;;;;;;;;;;;;;;0.81;100.00;97792.06;4935357;29;19911;-73
2023/01/31 01:20:29;;;;;;;;;;;;;;;0.78;100.00;97802.91;4935290;29;19910;-73
2023/01/31 01:22:54;;;;;;;;;;;;;;;0.72;100.00;97803.59;4918179;29;20242;-73
2023/01/31 01:25:20;;;;;;;;;;;;;;;0.74;100.00;97806.84;4935123;29;20310;-72
2023/01/31 01:27:47;;;;;;;;;;;;;;;0.73;100.00;97807.84;4934832;29;19954;-74
2023/01/31 01:30:13;;;;;;;;;;;;;;;0.74;100.00;97809.47;4935086;29;19954;-73
2023/01/31 01:32:38;;;;;;;;;;;;;;;0.78;100.00;97812.56;4934990;29;19940;-72
2023/01/31 01:35:03;;;;;;;;;;;;;;;0.72;100.00;97813.25;4935230;29;19966;-73
2023/01/31 01:37:29;;;;;;;;;;;;;;;0.71;100.00;97812.44;4934965;29;19959;-72
2023/01/31 01:39:54;;;;;;;;;;;;;;;0.76;100.00;97810.13;4935081;29;19911;-73
2023/01/31 01:42:22;;;;;;;;;;;;;;;0.82;100.00;97814.66;4934782;29;19910;-74
2023/01/31 01:45:00;;;;;;;;;;;;;;;0.80;100.00;97815.81;4935258;29;19925;-74
2023/01/31 01:47:34;;;;;;;;;;;;;;;0.82;100.00;97817.28;4935418;29;20390;-74
2023/01/31 01:50:01;;;;;;;;;;;;;;;0.81;100.00;97825.31;4917862;29;20334;-73
2023/01/31 01:52:29;;;;;;;;;;;;;;;0.81;100.00;97810.41;4935226;29;19926;-74
2023/01/31 01:55:02;;;;;;;;;;;;;;;0.87;100.00;97828.09;4934625;29;19915;-73
2023/01/31 01:57:31;;;;;;;;;;;;;;;0.90;100.00;97829.53;4934781;29;20360;-74
2023/01/31 02:00:03;;;;;;;;;;;;;;;0.93;100.00;97835.25;4934464;29;19914;-74
2023/01/31 02:02:30;;;;;;;;;;;;;;;0.89;100.00;97836.59;4938141;29;19926;-73
2023/01/31 02:04:56;;;;;;;;;;;;;;;0.91;100.00;97837.22;4938117;29;19914;-73
2023/01/31 02:07:21;;;;;;;;;;;;;;;0.93;100.00;97837.88;4920827;29;19917;-73
2023/01/31 02:09:50;;;;;;;;;;;;;;;0.98;100.00;97842.59;4937761;29;20033;-74
2023/01/31 02:12:15;;;;;;;;;;;;;;;0.97;100.00;97832.28;4937908;29;20355;-74
2023/01/31 02:14:41;;;;;;;;;;;;;;;0.99;100.00;97835.53;4937893;29;19917;-74
2023/01/31 02:17:26;;;;;;;;;;;;;;;0.98;100.00;97852.25;4924090;29;19911;-73
2023/01/31 02:19:57;;;;;;;;;;;;;;;0.93;100.00;97853.59;4937746;29;20377;-73
2023/01/31 02:22:32;;;;;;;;;;;;;;;0.98;100.00;97849.63;4938371;29;19954;-74
2023/01/31 02:25:18;;;;;;;;;;;;;;;0.92;100.00;97856.38;4937795;29;19911;-74
2023/01/31 02:27:43;;;;;;;;;;;;;;;0.85;100.00;97861.47;4937808;29;19911;-73
2023/01/31 02:30:48;;;;;;;;;;;;;;;0.81;100.00;97862.00;4937957;29;19921;-73
2023/01/31 02:33:16;;;;;;;;;;;;;;;0.76;100.00;97867.75;4937820;29;20316;-73
2023/01/31 02:35:51;;;;;;;;;;;;;;;0.73;100.00;97868.09;4937628;29;19911;-72
2023/01/31 02:38:28;;;;;;;;;;;;;;;0.75;100.00;97871.34;4937521;29;19910;-73
2023/01/31 02:40:56;;;;;;;;;;;;;;;0.72;100.00;97870.88;4937407;29;20320;-74
2023/01/31 02:43:33;;;;;;;;;;;;;;;0.75;100.00;97873.97;4939813;29;20399;-73
2023/01/31 02:46:07;;;;;;;;;;;;;;;0.77;100.00;97876.44;4941469;29;19978;-72
2023/01/31 02:48:38;;;;;;;;;;;;;;;0.75;100.00;97871.34;4940123;29;20262;-73
2023/01/31 02:51:09;;;;;;;;;;;;;;;0.74;100.00;97874.97;4920795;29;20268;-74
2023/01/31 02:53:36;;;;;;;;;;;;;;;0.66;100.00;97888.09;4937392;29;19963;-72
2023/01/31 02:56:13;;;;;;;;;;;;;;;0.59;100.00;97889.78;4937451;29;19911;-72
2023/01/31 02:58:40;;;;;;;;;;;;;;;0.49;100.00;97899.63;4939083;29;19925;-72
2023/01/31 03:01:08;;;;;;;;;;;;;;;0.49;100.00;97895.19;4922827;29;19921;-74
2023/01/31 03:03:35;;;;;;;;;;;;;;;0.49;100.00;97903.03;4939682;29;20005;-72
2023/01/31 03:06:10;;;;;;;;;;;;;;;0.54;100.00;97910.38;4940063;29;20338;-74
2023/01/31 03:08:36;;;;;;;;;;;;;;;0.46;100.00;97907.81;4937068;29;19917;-73
2023/01/31 03:11:04;;;;;;;;;;;;;;;0.39;100.00;97933.03;4904217;29;20387;-73
2023/01/31 03:13:32;;;;;;;;;;;;;;;0.30;100.00;97919.97;4936241;29;19966;-72
2023/01/31 03:19:17;;;;;;;;;;;;;;;0.20;100.00;97926.34;4936927;29;19931;-74
2023/01/31 03:21:46;;;;;;;;;;;;;;;0.19;100.00;97928.16;4937322;29;19918;-72
2023/01/31 03:24:12;;;;;;;;;;;;;;;0.21;100.00;97930.59;4923268;29;19942;-72
2023/01/31 03:26:37;;;;;;;;;;;;;;;0.19;100.00;97928.16;4939704;29;19910;-73
2023/01/31 03:29:04;;;;;;;;;;;;;;;0.19;100.00;97929.94;4941088;29;20355;-72
2023/01/31 03:31:38;;;;;;;;;;;;;;;0.20;100.00;97935.00;4936703;29;20256;-74
2023/01/31 03:34:10;;;;;;;;;;;;;;;0.24;100.00;97940.72;4936386;29;20446;-72
2023/01/31 03:36:47;;;;;;;;;;;;;;;0.27;100.00;97943.00;4936365;29;20017;-73
2023/01/31 03:39:15;;;;;;;;;;;;;;;0.26;100.00;97955.28;4937669;29;19947;-72
2023/01/31 03:41:57;;;;;;;;;;;;;;;0.23;100.00;97955.63;4939440;29;19911;-70
2023/01/31 03:44:41;;;;;;;;;;;;;;;0.25;100.00;97963.31;4921209;29;19915;-73
2023/01/31 03:47:27;;;;;;;;;;;;;;;0.24;100.00;97967.72;4919042;29;20390;-72
2023/01/31 03:49:53;;;;;;;;;;;;;;;0.26;100.00;97968.38;4935752;29;19910;-74
2023/01/31 03:52:25;;;;;;;;;;;;;;;0.26;100.00;97978.84;4936140;29;19937;-73
2023/01/31 03:54:54;;;;;;;;;;;;;;;0.27;100.00;97980.47;4936298;29;19917;-75
2023/01/31 03:57:24;;;;;;;;;;;;;;;0.25;100.00;97981.63;4936372;29;19953;-75
2023/01/31 03:59:52;;;;;;;;;;;;;;;0.25;100.00;97985.06;4936065;29;19919;-74
2023/01/31 04:02:20;;;;;;;;;;;;;;;0.29;100.00;97981.16;4935923;29;19922;-74
2023/01/31 04:04:52;;;;;;;;;;;;;;;0.35;100.00;97989.34;4935990;29;20359;-73
2023/01/31 04:07:18;;;;;;;;;;;;;;;0.34;100.00;97998.16;4918709;29;19911;-73
2023/01/31 04:09:43;;;;;;;;;;;;;;;0.36;100.00;98007.50;4935983;29;19938;-73
2023/01/31 04:12:11;;;;;;;;;;;;;;;0.30;100.00;98016.81;4935613;29;19915;-73
2023/01/31 04:14:36;;;;;;;;;;;;;;;0.27;100.00;98009.28;4935343;29;19911;-72
2023/01/31 04:17:33;;;;;;;;;;;;;;;0.23;100.00;98013.22;4918482;29;19918;-77
2023/01/31 04:19:58;;;;;;;;;;;;;;;0.14;100.00;98008.97;4935779;29;20507;-71
2023/01/31 04:22:24;;;;;;;;;;;;;;;0.15;100.00;98015.84;4935535;29;19911;-73
2023/01/31 04:24:49;;;;;;;;;;;;;;;0.18;100.00;98018.13;4935762;29;19911;-73
2023/01/31 04:27:14;;;;;;;;;;;;;;;0.19;100.00;98022.38;4936553;29;19958;-74
2023/01/31 04:29:40;;;;;;;;;;;;;;;0.21;100.00;98017.78;4935196;29;19914;-76
2023/01/31 04:32:05;;;;;;;;;;;;;;;0.21;100.00;98025.63;4918491;29;19954;-75
2023/01/31 04:34:30;;;;;;;;;;;;;;;0.23;100.00;98041.19;4936214;29;19911;-73
2023/01/31 04:36:56;;;;;;;;;;;;;;;0.15;100.00;98034.16;4935408;29;19911;-73
2023/01/31 04:39:21;;;;;;;;;;;;;;;0.09;100.00;98041.84;4935387;29;19993;-70
2023/01/31 04:41:47;;;;;;;;;;;;;;;0.00;100.00;98038.41;4934898;29;19910;-71
2023/01/31 04:44:12;;;;;;;;;;;;;;;-0.06;100.00;98049.50;4935189;29;20374;-70
2023/01/31 04:46:38;;;;;;;;;;;;;;;-0.06;100.00;98039.03;4935261;29;19915;-69
2023/01/31 04:49:03;;;;;;;;;;;;;;;0.00;100.00;98048.88;4935277;29;20001;-69
2023/01/31 04:51:28;;;;;;;;;;;;;;;-0.03;100.00;98039.53;4935627;29;20052;-69
2023/01/31 04:53:54;;;;;;;;;;;;;;;-0.06;100.00;98044.25;4918255;29;20054;-69
2023/01/31 04:56:19;;;;;;;;;;;;;;;-0.04;100.00;98052.78;4934944;29;19919;-70
2023/01/31 04:58:44;;;;;;;;;;;;;;;-0.04;100.00;98047.53;4935196;29;19922;-70
2023/01/31 05:01:35;;;;;;;;;;;;;;;0.01;100.00;98053.13;4934914;29;19921;-69
2023/01/31 05:04:01;;;;;;;;;;;;;;;-0.09;100.00;98062.91;4934959;29;19914;-70
2023/01/31 05:06:26;;;;;;;;;;;;;;;-0.09;100.00;98055.06;4934880;29;19915;-68
2023/01/31 05:08:54;;;;;;;;;;;;;;;-0.18;100.00;98061.25;4934946;29;19921;-70
2023/01/31 05:11:19;;;;;;;;;;;;;;;-0.28;100.00;98071.06;4935061;29;19966;-70
2023/01/31 05:13:46;;;;;;;;;;;;;;;-0.30;100.00;98081.66;4934870;29;19911;-70
2023/01/31 05:16:11;;;;;;;;;;;;;;;-0.32;100.00;98079.19;4935130;29;19917;-70
2023/01/31 05:18:37;;;;;;;;;;;;;;;-0.33;100.00;98085.41;4935075;29;19911;-69
2023/01/31 05:21:03;;;;;;;;;;;;;;;-0.39;100.00;98091.28;4934875;29;20278;-71
2023/01/31 05:23:29;;;;;;;;;;;;;;;-0.39;100.00;98086.03;4934774;29;20049;-70
2023/01/31 05:25:54;;;;;;;;;;;;;;;-0.42;100.00;98085.53;4934976;29;19910;-70
2023/01/31 05:28:19;;;;;;;;;;;;;;;-0.44;100.00;98093.53;4934645;29;20283;-68
2023/01/31 05:30:45;;;;;;;;;;;;;;;-0.42;100.00;98102.06;4934642;29;19953;-67
2023/01/31 05:33:10;;;;;;;;;;;;;;;-0.46;100.00;98094.69;4934866;29;19915;-70
2023/01/31 05:35:37;;;;;;;;;;;;;;;-0.46;100.00;98095.50;4935248;29;19910;-72
2023/01/31 05:38:03;;;;;;;;;;;;;;;-0.45;100.00;98097.13;4938230;29;19926;-71
2023/01/31 05:40:28;;;;;;;;;;;;;;;-0.48;100.00;98110.53;4938502;29;19914;-69
2023/01/31 05:42:54;;;;;;;;;;;;;;;-0.44;100.00;98119.69;4922366;29;19911;-70
2023/01/31 05:45:19;;;;;;;;;;;;;;;-0.49;100.00;98127.19;4938969;29;19911;-69
2023/01/31 05:47:45;;;;;;;;;;;;;;;-0.50;100.00;98130.78;4938264;29;20058;-69
2023/01/31 05:50:10;;;;;;;;;;;;;;;-0.54;100.00;98134.69;4939200;29;19935;-69
2023/01/31 05:52:36;;;;;;;;;;;;;;;-0.53;100.00;98143.34;4938798;29;19910;-69
2023/01/31 05:55:01;;;;;;;;;;;;;;;-0.52;100.00;98137.16;4939250;29;20381;-69
2023/01/31 05:57:28;;;;;;;;;;;;;;;-0.53;100.00;98138.94;4921363;29;20001;-69
2023/01/31 05:59:53;;;;;;;;;;;;;;;-0.53;100.00;98135.50;4921322;29;20021;-69
2023/01/31 06:02:18;;;;;;;;;;;;;;;-0.50;100.00;98146.47;4919177;29;19975;-69
2023/01/31 06:04:44;;;;;;;;;;;;;;;-0.49;100.00;98142.88;4919132;29;19911;-70
2023/01/31 06:07:09;;;;;;;;;;;;;;;-0.47;100.00;98148.78;4918974;29;19923;-70
2023/01/31 06:09:37;;;;;;;;;;;;;;;-0.46;100.00;98153.03;4919211;29;20426;-69
2023/01/31 06:12:03;;;;;;;;;;;;;;;-0.43;100.00;98164.97;4918955;29;19918;-70
2023/01/31 06:14:28;;;;;;;;;;;;;;;-0.41;100.00;98163.81;4918797;29;19915;-70
2023/01/31 06:16:53;;;;;;;;;;;;;;;-0.38;100.00;98171.34;4919134;29;19911;-70
2023/01/31 06:19:24;;;;;;;;;;;;;;;-0.35;100.00;98171.03;4919133;29;19911;-69
2023/01/31 06:21:49;;;;;;;;;;;;;;;-0.32;100.00;98175.94;4902952;29;20264;-70
2023/01/31 06:24:14;;;;;;;;;;;;;;;-0.37;100.00;98183.44;4919471;29;19918;-69
2023/01/31 06:26:40;;;;;;;;;;;;;;;-0.39;100.00;98185.41;4918775;29;19915;-69
2023/01/31 06:29:08;;;;;;;;;;;;;;;-0.42;100.00;98184.91;4918520;29;19917;-68
2023/01/31 06:31:33;;;;;;;;;;;;;;;-0.41;100.00;98182.13;4919052;29;20002;-69
2023/01/31 06:33:59;;;;;;;;;;;;;;;-0.36;100.00;98192.94;4918628;29;19971;-68
2023/01/31 06:36:24;;;;;;;;;;;;;;;-0.33;100.00;98192.63;4918926;29;19918;-69
2023/01/31 06:38:52;;;;;;;;;;;;;;;-0.33;100.00;98195.25;4901606;29;19911;-69
2023/01/31 06:41:19;;;;;;;;;;;;;;;-0.31;100.00;98198.50;4918483;29;20268;-68
2023/01/31 06:44:05;;;;;;;;;;;;;;;-0.27;100.00;98200.84;4918218;29;20347;-69
2023/01/31 06:46:31;;;;;;;;;;;;;;;-0.27;100.00;98208.69;4917774;29;20006;-70
2023/01/31 06:48:56;;;;;;;;;;;;;;;-0.32;100.00;98196.88;4916845;29;20359;-71
2023/01/31 06:51:22;;;;;;;;;;;;;;;-0.29;100.00;98206.19;4917975;29;19921;-70
2023/01/31 06:53:47;;;;;;;;;;;;;;;-0.31;100.00;98219.44;4918069;29;19911;-70
2023/01/31 06:56:13;;;;;;;;;;;;;;;-0.39;100.00;98211.56;4917798;29;19964;-69
2023/01/31 06:59:03;;;;;;;;;;;;;;;-0.39;100.00;98229.03;4921028;29;20422;-70
2023/01/31 07:01:29;;;;;;;;;;;;;;;-0.47;100.00;98232.44;4901148;29;19915;-70
2023/01/31 07:03:54;;;;;;;;;;;;;;;-0.47;100.00;98237.66;4917145;29;19911;-68
2023/01/31 07:06:21;;;;;;;;;;;;;;;-0.39;100.00;98232.47;4917438;29;19959;-69
2023/01/31 07:09:01;;;;;;;;;;;;;;;-0.36;100.00;98233.97;4917154;29;20001;-69
2023/01/31 07:11:36;;;;;;;;;;;;;;;-0.32;100.00;98243.94;4917024;29;20283;-69
2023/01/31 07:14:01;;;;;;;;;;;;;;;-0.24;100.00;98240.59;4917371;29;20020;-69
2023/01/31 07:16:27;;;;;;;;;;;;;;;-0.23;100.00;98244.00;4917727;29;20376;-71
2023/01/31 07:18:55;;;;;;;;;;;;;;;-0.18;100.00;98250.41;4917602;29;20422;-70
2023/01/31 07:21:21;;;;;;;;;;;;;;;-0.23;100.00;98255.28;4917745;29;20167;-70
2023/01/31 07:23:47;;;;;;;;;;;;;;;-0.23;100.00;98254.47;4917232;29;19946;-69
2023/01/31 07:26:13;;;;;;;;;;;;;;;-0.22;100.00;98256.13;4917222;29;19954;-68
2023/01/31 07:28:38;;;;;;;;;;;;;;;-0.32;100.00;98259.66;4917121;29;19911;-69
2023/01/31 07:31:09;;;;;;;;;;;;;;;-0.35;100.00;98267.78;4900047;29;19911;-68
2023/01/31 07:33:35;;;;;;;;;;;;;;;-0.34;100.00;98266.81;4917327;29;19911;-70
2023/01/31 07:36:03;;;;;;;;;;;;;;;-0.33;100.00;98272.88;4915113;29;19970;-69
2023/01/31 07:38:28;;;;;;;;;;;;;;;-0.26;100.00;98283.56;4917438;29;20421;-72
2023/01/31 07:40:56;;;;;;;;;;;;;;;-0.22;100.00;98283.09;4917250;29;20017;-72
2023/01/31 07:43:22;;;;;;;;;;;;;;;-0.17;100.00;98277.41;4917069;29;19951;-69
2023/01/31 07:45:47;;;;;;;;;;;;;;;-0.17;100.00;98290.47;4899345;29;19981;-71
2023/01/31 07:48:12;;;;;;;;;;;;;;;-0.18;100.00;98291.44;4916805;29;19911;-70
2023/01/31 07:50:38;;;;;;;;;;;;;;;-0.20;100.00;98299.44;4917195;29;19911;-71
2023/01/31 07:53:03;;;;;;;;;;;;;;;-0.21;100.00;98303.03;4917279;29;19911;-69
2023/01/31 07:55:28;;;;;;;;;;;;;;;-0.22;100.00;98311.03;4917288;29;19915;-71
2023/01/31 07:57:55;;;;;;;;;;;;;;;-0.23;100.00;98315.47;4919211;28;19934;-71
2023/01/31 08:03:32;;;;;;;;;;;;;;;-0.18;100.00;98328.06;4955140;29;19910;-73
2023/01/31 08:05:58;;;;;;;;;;;;;;;-0.18;100.00;98338.53;4954899;29;19910;-76
2023/01/31 08:08:23;;;;;;;;;;;;;;;-0.24;100.00;98339.16;4955066;28;19953;-72
2023/01/31 08:10:48;;;;;;;;;;;;;;;-0.18;100.00;98343.75;4954732;28;20014;-77
2023/01/31 08:13:14;;;;;;;;;;;;;;;-0.24;100.00;98349.63;4954907;28;19910;-77
2023/01/31 08:15:39;;;;;;;;;;;;;;;-0.22;100.00;98358.13;4954973;29;20354;-70
2023/01/31 08:18:04;;;;;;;;;;;;;;;-0.22;100.00;98360.75;4954396;29;19910;-71
2023/01/31 08:20:30;;;;;;;;;;;;;;;-0.26;100.00;98362.03;4953918;29;19918;-74
2023/01/31 08:22:57;;;;;;;;;;;;;;;-0.23;100.00;98366.94;4954473;28;19916;-72
2023/01/31 08:25:24;;;;;;;;;;;;;;;-0.22;100.00;98376.44;4954561;28;20274;-72
2023/01/31 08:27:50;;;;;;;;;;;;;;;-0.21;100.00;98376.28;4954777;29;19954;-70
2023/01/31 08:30:15;;;;;;;;;;;;;;;-0.21;100.00;98383.31;4937454;29;19985;-70
2023/01/31 08:32:40;;;;;;;;;;;;;;;-0.25;100.00;98393.25;4954560;28;19912;-72
2023/01/31 08:35:06;;;;;;;;;;;;;;;-0.25;100.00;98395.06;4954404;29;19910;-71
2023/01/31 08:37:33;;;;;;;;;;;;;;;-0.25;100.00;98392.44;4957475;29;20314;-73
2023/01/31 08:39:58;;;;;;;;;;;;;;;-0.24;100.00;98407.97;4958256;28;19917;-72
2023/01/31 08:42:23;;;;;;;;;;;;;;;-0.21;100.00;98406.84;4954728;28;20362;-70
2023/01/31 08:44:49;;;;;;;;;;;;;;;-0.22;100.00;98406.03;4954594;29;19910;-71
2023/01/31 08:50:27;;;;;;;;;;;;;;;-0.20;100.00;98403.25;4957007;29;19910;-73
2023/01/31 08:52:56;;;;;;;;;;;;;;;-0.21;100.00;98406.84;4958289;28;20005;-72
2023/01/31 08:55:22;;;;;;;;;;;;;;;-0.23;100.00;98411.41;4961239;28;20013;-73
2023/01/31 08:57:50;;;;;;;;;;;;;;;-0.25;100.00;98435.13;4960356;28;19942;-76
2023/01/31 09:00:22;;;;;;;;;;;;;;;-0.26;100.00;98430.03;4956066;29;19914;-73
2023/01/31 09:02:53;;;;;;;;;;;;;;;-0.20;100.00;98432.84;4953556;29;19916;-71
2023/01/31 09:05:19;;;;;;;;;;;;;;;-0.23;100.00;98441.00;4944752;29;19956;-71
2023/01/31 09:07:44;;;;;;;;;;;;;;;-0.19;100.00;98420.59;4950050;29;19942;-73
2023/01/31 09:10:09;;;;;;;;;;;;;;;-0.14;100.00;98439.28;4954172;28;19911;-71
2023/01/31 09:12:35;;;;;;;;;;;;;;;-0.16;100.00;98465.59;4958311;28;19946;-71
2023/01/31 09:15:01;;;;;;;;;;;;;;;-0.15;99.31;98445.47;4958104;29;19917;-72
2023/01/31 09:17:26;;;;;;;;;;;;;;;-0.05;99.56;98459.28;4958237;29;20355;-71
2023/01/31 09:19:51;;;;;;;;;;;;;;;-0.04;98.53;98463.53;4958208;28;20059;-70
2023/01/31 09:22:17;;;;;;;;;;;;;;;0.02;98.54;98455.13;4958676;29;20309;-73
2023/01/31 09:24:42;;;;;;;;;;;;;;;0.01;97.74;98458.72;4958259;29;19910;-70
2023/01/31 09:27:07;;;;;;;;;;;;;;;0.02;97.55;98470.00;4958808;28;19910;-73
2023/01/31 09:29:33;;;;;;;;;;;;;;;-0.01;97.46;98476.31;4961378;29;20005;-70
2023/01/31 09:32:04;;;;;;;;;;;;;;;-0.08;97.71;98481.34;4965424;29;19973;-74
2023/01/31 09:34:30;;;;;;;;;;;;;;;-0.10;97.49;98477.25;4965043;29;19961;-74
2023/01/31 09:36:56;;;;;;;;;;;;;;;-0.16;97.78;98472.63;4961901;29;20255;-73
2023/01/31 09:39:26;;;;;;;;;;;;;;;-0.22;98.09;98481.06;4960614;29;20009;-69
2023/01/31 09:41:52;;;;;;;;;;;;;;;-0.17;98.79;98486.66;4958661;28;19910;-73
2023/01/31 09:44:17;;;;;;;;;;;;;;;-0.13;98.49;98493.25;4958334;29;20359;-71
2023/01/31 09:46:46;;;;;;;;;;;;;;;-0.18;97.90;98500.72;4958312;29;19910;-72
2023/01/31 09:49:21;;;;;;;;;;;;;;;-0.14;97.77;98502.06;4958443;28;20424;-71
2023/01/31 09:51:51;;;;;;;;;;;;;;;-0.07;98.15;98508.34;4958120;29;20010;-72
2023/01/31 09:54:23;;;;;;;;;;;;;;;-0.06;98.06;98517.81;4957745;29;20257;-75
2023/01/31 09:57:08;;;;;;;;;;;;;;;0.00;98.24;98514.63;4957853;29;19918;-76
2023/01/31 09:59:57;;;;;;;;;;;;;;;0.08;98.37;98514.69;4957272;29;19985;-74
2023/01/31 10:02:29;;;;;;;;;;;;;;;0.06;98.20;98521.06;4957883;29;19969;-71
2023/01/31 10:04:54;;;;;;;;;;;;;;;0.02;97.92;98538.03;4957627;29;19945;-73
2023/01/31 10:07:32;;;;;;;;;;;;;;;-0.01;97.40;98536.50;4957297;28;19933;-74
2023/01/31 10:10:24;;;;;;;;;;;;;;;-0.09;97.33;98525.97;4957406;28;19911;-70
2023/01/31 10:12:56;;;;;;;;;;;;;;;-0.06;97.22;98530.91;4941843;29;19915;-75
2023/01/31 10:15:24;;;;;;;;;;;;;;;0.03;97.30;98537.88;4956959;28;19911;-75
2023/01/31 10:18:07;;;;;;;;;;;;;;;0.06;97.74;98542.81;4961662;28;19910;-75
2023/01/31 10:20:38;;;;;;;;;;;;;;;0.16;98.69;98553.19;4969930;29;19949;-73
2023/01/31 10:23:06;;;;;;;;;;;;;;;0.20;98.44;98555.34;4960697;28;20274;-71
2023/01/31 10:25:43;;;;;;;;;;;;;;;0.25;98.34;98560.13;4957385;29;19910;-73
2023/01/31 10:28:08;;;;;;;;;;;;;;;0.20;98.50;98568.44;4957608;29;20259;-73
2023/01/31 10:30:52;;;;;;;;;;;;;;;0.09;98.00;98581.78;4940468;29;19917;-75
2023/01/31 10:33:36;;;;;;;;;;;;;;;-0.15;100.00;98579.72;4956972;28;20389;-73
2023/01/31 10:36:04;;;;;;;;;;;;;;;-0.37;100.00;98573.09;4956809;29;19911;-72
2023/01/31 10:38:40;;;;;;;;;;;;;;;-0.43;100.00;98583.34;4940181;29;20005;-75
2023/01/31 10:41:08;;;;;;;;;;;;;;;-0.32;100.00;98581.34;4957395;29;19921;-76
2023/01/31 10:43:52;;;;;;;;;;;;;;;-0.25;100.00;98593.84;4940321;29;20270;-73
2023/01/31 10:46:18;;;;;;;;;;;;;;;-0.26;100.00;98586.97;4957277;29;20021;-72
2023/01/31 10:48:44;;;;;;;;;;;;;;;-0.22;100.00;98591.75;4939842;29;19997;-72
2023/01/31 10:51:12;;;;;;;;;;;;;;;-0.20;100.00;98596.84;4957421;28;19914;-70
2023/01/31 10:53:56;;;;;;;;;;;;;;;-0.13;100.00;98601.31;4958031;29;19910;-74
2023/01/31 10:56:31;;;;;;;;;;;;;;;-0.04;100.00;98608.28;4966414;28;19910;-70
2023/01/31 10:58:58;;;;;;;;;;;;;;;0.06;100.00;98610.03;4966248;29;19921;-71
2023/01/31 11:01:25;;;;;;;;;;;;;;;0.04;100.00;98610.19;4966261;29;19914;-71
2023/01/31 11:03:53;;;;;;;;;;;;;;;0.08;100.00;98616.75;4967770;28;19915;-71
2023/01/31 11:06:18;;;;;;;;;;;;;;;0.14;100.00;98618.78;4966006;29;19910;-70
2023/01/31 11:08:44;;;;;;;;;;;;;;;0.11;98.20;98613.03;4969380;28;19920;-72
2023/01/31 11:11:17;;;;;;;;;;;;;;;-0.05;97.71;98621.50;4971116;29;19987;-72
2023/01/31 11:14:01;;;;;;;;;;;;;;;-0.11;98.16;98628.16;4944754;29;19973;-70
2023/01/31 11:16:41;;;;;;;;;;;;;;;-0.13;98.89;98622.25;4957763;29;19910;-72
2023/01/31 11:19:17;;;;;;;;;;;;;;;-0.17;99.30;98628.75;4956446;29;19910;-69
2023/01/31 11:21:47;;;;;;;;;;;;;;;-0.16;99.81;98640.88;4956945;29;19914;-72
2023/01/31 11:24:17;;;;;;;;;;;;;;;-0.24;98.88;98630.31;4958420;29;19946;-74
2023/01/31 11:26:49;;;;;;;;;;;;;;;-0.22;99.06;98631.00;4958341;29;19968;-68
2023/01/31 11:29:35;;;;;;;;;;;;;;;-0.19;98.24;98645.56;4957923;29;20010;-71
2023/01/31 11:32:02;;;;;;;;;;;;;;;-0.10;97.94;98640.28;4957974;29;19922;-71
2023/01/31 11:34:29;;;;;;;;;;;;;;;-0.10;96.46;98645.50;4958177;28;19918;-67
2023/01/31 11:37:24;;;;;;;;;;;;;;;-0.13;95.05;98642.38;4958654;29;20335;-67
2023/01/31 11:39:56;;;;;;;;;;;;;;;-0.22;95.09;98651.94;4948330;29;19915;-68
2023/01/31 11:42:22;;;;;;;;;;;;;;;-0.27;95.80;98656.78;4956791;28;20065;-66
2023/01/31 11:45:15;;;;;;;;;;;;;;;-0.29;95.74;98660.47;4956812;28;19981;-68
2023/01/31 11:47:49;;;;;;;;;;;;;;;-0.28;94.70;98677.84;4957892;29;19910;-67
2023/01/31 11:50:19;;;;;;;;;;;;;;;-0.24;95.08;98671.34;4957291;28;19937;-64
2023/01/31 11:52:44;;;;;;;;;;;;;;;-0.22;94.59;98679.88;4957453;28;19911;-70
2023/01/31 11:55:16;;;;;;;;;;;;;;;-0.22;94.36;98678.09;4957133;28;19917;-72
2023/01/31 11:57:42;;;;;;;;;;;;;;;-0.23;94.08;98691.31;4957378;29;19910;-69
2023/01/31 12:00:22;;;;;;;;;;;;;;;-0.23;94.58;98693.94;4957364;28;20322;-66
2023/01/31 12:02:52;;;;;;;;;;;;;;;-0.20;95.21;98685.78;4956563;29;20033;-65
2023/01/31 12:05:18;;;;;;;;;;;;;;;-0.19;95.92;98690.88;4938820;29;19934;-66
2023/01/31 12:07:49;;;;;;;;;;;;;;;-0.23;95.61;98697.38;4955510;29;20254;-65
2023/01/31 12:10:26;;;;;;;;;;;;;;;-0.28;95.16;98698.78;4922303;29;19911;-70
2023/01/31 12:12:52;;;;;;;;;;;;;;;-0.33;95.53;98709.63;4955356;29;19992;-70
2023/01/31 12:15:17;;;;;;;;;;;;;;;-0.35;95.54;98708.97;4956629;29;19942;-69
2023/01/31 12:17:44;;;;;;;;;;;;;;;-0.36;93.42;98710.75;4956272;29;19957;-67
2023/01/31 12:20:16;;;;;;;;;;;;;;;-0.28;93.53;98714.47;4937665;29;19910;-65
2023/01/31 12:22:53;;;;;;;;;;;;;;;-0.25;93.04;98724.63;4951444;29;20374;-67
2023/01/31 12:25:33;;;;;;;;;;;;;;;-0.20;92.58;98727.63;4935305;29;19939;-66
2023/01/31 12:28:01;;;;;;;;;;;;;;;-0.26;92.01;98715.97;4934728;29;19911;-67
2023/01/31 12:30:33;;;;;;;;;;;;;;;-0.29;92.16;98733.72;4934865;29;19922;-66
2023/01/31 12:33:09;;;;;;;;;;;;;;;-0.35;91.70;98729.88;4935344;29;19910;-66
2023/01/31 12:35:34;;;;;;;;;;;;;;;-0.38;91.62;98724.94;4935544;29;19911;-67
2023/01/31 12:38:12;;;;;;;;;;;;;;;-0.34;92.45;98736.75;4935585;29;19926;-66
2023/01/31 12:40:46;;;;;;;;;;;;;;;-0.33;93.10;98738.41;4936035;29;20348;-68
2023/01/31 12:43:24;;;;;;;;;;;;;;;-0.35;93.03;98746.41;4936069;29;20007;-66
2023/01/31 12:45:59;;;;;;;;;;;;;;;-0.42;92.62;98760.19;4936431;29;19914;-67
2023/01/31 12:48:44;;;;;;;;;;;;;;;-0.53;98.15;98768.22;4936788;29;20005;-67
2023/01/31 12:51:15;;;;;;;;;;;;;;;-0.54;100.00;98772.63;4933725;29;20286;-67
2023/01/31 12:53:54;;;;;;;;;;;;;;;-0.55;97.53;98776.19;4935297;29;20480;-67
2023/01/31 12:56:28;;;;;;;;;;;;;;;-0.47;96.12;98773.69;4935381;29;19921;-67
2023/01/31 12:59:07;;;;;;;;;;;;;;;-0.44;93.36;98778.66;4935016;29;19915;-68
2023/01/31 13:01:36;;;;;;;;;;;;;;;-0.43;93.08;98789.94;4935495;29;19961;-68